sensor_id;sensor_type;location;lat;lon;timestamp;pressure;altitude;pressure_sealevel;temperature;humidity
42385;BME280;28042;43.986;22.860;2023-07-22T00:00:26;100921.47;;;21.54;100.00
42385;BME280;28042;43.986;22.860;2023-07-22T00:02:52;100921.47;;;21.54;100.00
42385;BME280;28042;43.986;22.860;2023-07-22T00:05:17;100920.13;;;21.56;100.00
42385;BME280;28042;43.986;22.860;2023-07-22T00:07:49;100929.06;;;21.63;100.00
42385;BME280;28042;43.986;22.860;2023-07-22T00:10:14;100895.16;;;21.61;100.00
42385;BME280;28042;43.986;22.860;2023-07-22T00:12:40;100859.25;;;21.50;100.00
42385;BME280;28042;43.986;22.860;2023-07-22T00:15:05;100874.38;;;21.64;100.00
42385;BME280;28042;43.986;22.860;2023-07-22T00:17:31;100892.97;;;21.63;100.00
42385;BME280;28042;43.986;22.860;2023-07-22T00:19:56;100885.81;;;21.78;100.00
42385;BME280;28042;43.986;22.860;2023-07-22T00:22:22;100896.97;;;21.83;100.00
42385;BME280;28042;43.986;22.860;2023-07-22T00:24:47;100858.88;;;21.73;100.00
42385;BME280;28042;43.986;22.860;2023-07-22T00:27:14;100858.16;;;21.93;100.00
42385;BME280;28042;43.986;22.860;2023-07-22T00:29:39;100856.59;;;22.12;100.00
42385;BME280;28042;43.986;22.860;2023-07-22T00:32:07;100807.06;;;21.99;100.00
42385;BME280;28042;43.986;22.860;2023-07-22T00:34:34;100835.81;;;22.20;100.00
42385;BME280;28042;43.986;22.860;2023-07-22T00:36:59;100837.19;;;22.22;100.00
42385;BME280;28042;43.986;22.860;2023-07-22T00:39:25;100817.63;;;22.02;100.00
42385;BME280;28042;43.986;22.860;2023-07-22T00:41:50;100807.31;;;21.92;100.00
42385;BME280;28042;43.986;22.860;2023-07-22T00:44:16;100838.31;;;22.16;100.00
42385;BME280;28042;43.986;22.860;2023-07-22T00:46:41;100848.88;;;22.19;100.00
42385;BME280;28042;43.986;22.860;2023-07-22T00:49:07;100837.16;;;22.12;100.00
42385;BME280;28042;43.986;22.860;2023-07-22T00:51:33;100854.97;;;22.21;100.00
42385;BME280;28042;43.986;22.860;2023-07-22T00:53:58;100854.97;;;22.16;100.00
42385;BME280;28042;43.986;22.860;2023-07-22T00:56:24;100818.66;;;21.81;100.00
42385;BME280;28042;43.986;22.860;2023-07-22T00:58:50;100830.00;;;21.74;100.00
42385;BME280;28042;43.986;22.860;2023-07-22T01:01:16;100855.34;;;21.88;100.00
42385;BME280;28042;43.986;22.860;2023-07-22T01:03:42;100829.72;;;21.76;100.00
42385;BME280;28042;43.986;22.860;2023-07-22T01:06:07;100823.56;;;21.63;100.00
42385;BME280;28042;43.986;22.860;2023-07-22T01:08:34;100859.22;;;21.82;100.00
42385;BME280;28042;43.986;22.860;2023-07-22T01:10:59;100829.66;;;21.65;100.00
42385;BME280;28042;43.986;22.860;2023-07-22T01:13:25;100859.78;;;21.89;100.00
42385;BME280;28042;43.986;22.860;2023-07-22T01:15:50;100873.16;;;21.92;100.00
42385;BME280;28042;43.986;22.860;2023-07-22T01:18:16;100862.88;;;21.97;100.00
42385;BME280;28042;43.986;22.860;2023-07-22T01:20:42;100817.53;;;21.82;100.00
42385;BME280;28042;43.986;22.860;2023-07-22T01:23:09;100805.25;;;21.67;100.00
42385;BME280;28042;43.986;22.860;2023-07-22T01:25:34;100811.34;;;21.64;100.00
42385;BME280;28042;43.986;22.860;2023-07-22T01:28:00;100792.41;;;21.61;100.00
42385;BME280;28042;43.986;22.860;2023-07-22T01:30:25;100807.72;;;21.64;100.00
42385;BME280;28042;43.986;22.860;2023-07-22T01:32:53;100847.16;;;21.66;100.00
42385;BME280;28042;43.986;22.860;2023-07-22T01:35:18;100851.88;;;21.65;100.00
42385;BME280;28042;43.986;22.860;2023-07-22T01:37:44;100872.25;;;21.81;100.00
42385;BME280;28042;43.986;22.860;2023-07-22T01:40:11;100839.69;;;21.71;100.00
42385;BME280;28042;43.986;22.860;2023-07-22T01:42:43;100868.16;;;21.94;100.00
42385;BME280;28042;43.986;22.860;2023-07-22T01:45:09;100843.00;;;21.68;100.00
42385;BME280;28042;43.986;22.860;2023-07-22T01:47:36;100836.00;;;21.56;100.00
42385;BME280;28042;43.986;22.860;2023-07-22T01:50:05;100819.34;;;21.56;100.00
42385;BME280;28042;43.986;22.860;2023-07-22T01:52:34;100868.06;;;21.79;100.00
42385;BME280;28042;43.986;22.860;2023-07-22T01:54:59;100852.88;;;21.49;100.00
42385;BME280;28042;43.986;22.860;2023-07-22T01:57:25;100852.56;;;21.45;100.00
42385;BME280;28042;43.986;22.860;2023-07-22T01:59:50;100865.19;;;21.63;100.00
42385;BME280;28042;43.986;22.860;2023-07-22T02:02:16;100845.72;;;21.58;100.00
42385;BME280;28042;43.986;22.860;2023-07-22T02:04:41;100848.53;;;21.63;100.00
42385;BME280;28042;43.986;22.860;2023-07-22T02:07:07;100829.91;;;21.59;100.00
42385;BME280;28042;43.986;22.860;2023-07-22T02:09:32;100862.16;;;21.65;100.00
42385;BME280;28042;43.986;22.860;2023-07-22T02:11:58;100864.59;;;21.56;100.00
42385;BME280;28042;43.986;22.860;2023-07-22T02:14:24;100849.44;;;21.37;100.00
42385;BME280;28042;43.986;22.860;2023-07-22T02:16:49;100853.97;;;21.48;100.00
42385;BME280;28042;43.986;22.860;2023-07-22T02:19:15;100864.00;;;21.54;100.00
42385;BME280;28042;43.986;22.860;2023-07-22T02:21:41;100863.94;;;21.44;100.00
42385;BME280;28042;43.986;22.860;2023-07-22T02:24:07;100866.34;;;21.30;100.00
42385;BME280;28042;43.986;22.860;2023-07-22T02:26:33;100885.50;;;21.32;100.00
42385;BME280;28042;43.986;22.860;2023-07-22T02:28:58;100898.25;;;21.33;100.00
42385;BME280;28042;43.986;22.860;2023-07-22T02:31:24;100910.59;;;21.47;100.00
42385;BME280;28042;43.986;22.860;2023-07-22T02:33:50;100897.22;;;21.39;100.00
42385;BME280;28042;43.986;22.860;2023-07-22T02:36:16;100894.28;;;21.24;100.00
42385;BME280;28042;43.986;22.860;2023-07-22T02:38:41;100934.88;;;21.30;100.00
42385;BME280;28042;43.986;22.860;2023-07-22T02:41:07;100896.06;;;21.08;100.00
42385;BME280;28042;43.986;22.860;2023-07-22T02:43:36;100929.16;;;21.14;100.00
42385;BME280;28042;43.986;22.860;2023-07-22T02:46:02;100907.22;;;20.86;100.00
42385;BME280;28042;43.986;22.860;2023-07-22T02:48:29;100924.63;;;20.81;100.00
42385;BME280;28042;43.986;22.860;2023-07-22T02:50:54;100953.94;;;20.99;100.00
42385;BME280;28042;43.986;22.860;2023-07-22T02:53:20;100961.13;;;20.95;100.00
42385;BME280;28042;43.986;22.860;2023-07-22T02:55:46;100945.97;;;20.81;100.00
42385;BME280;28042;43.986;22.860;2023-07-22T02:58:12;100975.19;;;20.88;100.00
42385;BME280;28042;43.986;22.860;2023-07-22T03:00:37;100955.84;;;20.72;100.00
42385;BME280;28042;43.986;22.860;2023-07-22T03:03:03;100986.56;;;20.87;100.00
42385;BME280;28042;43.986;22.860;2023-07-22T03:05:31;100958.56;;;20.67;100.00
42385;BME280;28042;43.986;22.860;2023-07-22T03:07:58;100987.44;;;20.93;100.00
42385;BME280;28042;43.986;22.860;2023-07-22T03:10:24;100983.25;;;20.90;100.00
42385;BME280;28042;43.986;22.860;2023-07-22T03:12:55;100967.03;;;20.77;100.00
42385;BME280;28042;43.986;22.860;2023-07-22T03:15:24;100997.19;;;20.95;100.00
42385;BME280;28042;43.986;22.860;2023-07-22T03:17:51;100981.88;;;20.93;100.00
42385;BME280;28042;43.986;22.860;2023-07-22T03:20:17;100966.94;;;20.72;100.00
42385;BME280;28042;43.986;22.860;2023-07-22T03:22:45;100988.53;;;20.92;100.00
42385;BME280;28042;43.986;22.860;2023-07-22T03:25:12;100991.09;;;20.98;100.00
42385;BME280;28042;43.986;22.860;2023-07-22T03:27:39;100947.25;;;20.95;100.00
42385;BME280;28042;43.986;22.860;2023-07-22T03:30:05;100945.00;;;20.92;100.00
42385;BME280;28042;43.986;22.860;2023-07-22T03:32:33;100981.75;;;21.04;100.00
42385;BME280;28042;43.986;22.860;2023-07-22T03:34:58;100983.81;;;21.14;100.00
42385;BME280;28042;43.986;22.860;2023-07-22T03:37:24;100949.59;;;21.08;100.00
42385;BME280;28042;43.986;22.860;2023-07-22T03:39:49;100963.19;;;21.32;100.00
42385;BME280;28042;43.986;22.860;2023-07-22T03:42:16;100949.69;;;21.40;100.00
42385;BME280;28042;43.986;22.860;2023-07-22T03:44:41;100922.69;;;21.36;100.00
42385;BME280;28042;43.986;22.860;2023-07-22T03:47:07;100924.59;;;21.62;100.00
42385;BME280;28042;43.986;22.860;2023-07-22T03:49:32;100913.78;;;22.03;100.00
42385;BME280;28042;43.986;22.860;2023-07-22T03:51:58;100933.56;;;22.64;100.00
42385;BME280;28042;43.986;22.860;2023-07-22T03:54:23;100898.63;;;22.99;100.00
42385;BME280;28042;43.986;22.860;2023-07-22T03:56:49;100911.47;;;23.51;100.00
42385;BME280;28042;43.986;22.860;2023-07-22T03:59:14;100912.31;;;23.92;100.00
42385;BME280;28042;43.986;22.860;2023-07-22T04:01:40;100888.53;;;24.25;100.00
42385;BME280;28042;43.986;22.860;2023-07-22T04:04:05;100917.66;;;24.63;100.00
42385;BME280;28042;43.986;22.860;2023-07-22T04:06:30;100917.22;;;24.90;100.00
42385;BME280;28042;43.986;22.860;2023-07-22T04:08:56;100936.66;;;25.16;100.00
42385;BME280;28042;43.986;22.860;2023-07-22T04:11:21;100905.34;;;25.53;100.00
42385;BME280;28042;43.986;22.860;2023-07-22T04:13:47;100928.34;;;25.79;96.51
42385;BME280;28042;43.986;22.860;2023-07-22T04:16:14;100936.00;;;26.21;92.48
42385;BME280;28042;43.986;22.860;2023-07-22T04:18:40;100930.47;;;26.45;90.98
42385;BME280;28042;43.986;22.860;2023-07-22T04:21:06;100932.09;;;26.70;89.76
42385;BME280;28042;43.986;22.860;2023-07-22T04:23:31;100942.44;;;27.31;86.07
42385;BME280;28042;43.986;22.860;2023-07-22T04:26:02;100958.78;;;27.80;81.03
42385;BME280;28042;43.986;22.860;2023-07-22T04:28:30;100936.03;;;27.82;79.31
42385;BME280;28042;43.986;22.860;2023-07-22T04:30:57;100950.00;;;28.14;78.26
42385;BME280;28042;43.986;22.860;2023-07-22T04:33:26;100963.63;;;28.21;77.77
42385;BME280;28042;43.986;22.860;2023-07-22T04:35:55;100978.41;;;27.80;78.36
42385;BME280;28042;43.986;22.860;2023-07-22T04:38:21;101014.47;;;27.30;81.49
42385;BME280;28042;43.986;22.860;2023-07-22T04:40:46;101006.06;;;26.06;88.00
42385;BME280;28042;43.986;22.860;2023-07-22T04:43:11;101010.00;;;25.71;93.71
42385;BME280;28042;43.986;22.860;2023-07-22T04:45:37;100994.53;;;25.44;95.74
42385;BME280;28042;43.986;22.860;2023-07-22T04:48:05;100998.13;;;25.05;98.28
42385;BME280;28042;43.986;22.860;2023-07-22T04:50:31;101010.06;;;24.51;100.00
42385;BME280;28042;43.986;22.860;2023-07-22T04:52:56;101010.66;;;24.03;100.00
42385;BME280;28042;43.986;22.860;2023-07-22T04:55:22;101058.31;;;23.65;100.00
42385;BME280;28042;43.986;22.860;2023-07-22T04:57:47;101064.59;;;23.30;100.00
42385;BME280;28042;43.986;22.860;2023-07-22T05:00:13;101065.06;;;23.07;100.00
42385;BME280;28042;43.986;22.860;2023-07-22T05:02:44;101031.13;;;22.57;100.00
42385;BME280;28042;43.986;22.860;2023-07-22T05:05:11;101010.94;;;22.77;100.00
42385;BME280;28042;43.986;22.860;2023-07-22T05:07:37;101016.84;;;22.86;100.00
42385;BME280;28042;43.986;22.860;2023-07-22T05:10:02;101015.81;;;23.02;100.00
42385;BME280;28042;43.986;22.860;2023-07-22T05:12:28;101016.69;;;23.23;100.00
42385;BME280;28042;43.986;22.860;2023-07-22T05:14:53;100994.63;;;23.01;100.00
42385;BME280;28042;43.986;22.860;2023-07-22T05:17:19;101045.06;;;23.15;100.00
42385;BME280;28042;43.986;22.860;2023-07-22T05:19:44;101039.94;;;22.92;100.00
42385;BME280;28042;43.986;22.860;2023-07-22T05:22:10;101047.69;;;22.84;100.00
42385;BME280;28042;43.986;22.860;2023-07-22T05:24:35;101093.91;;;22.86;100.00
42385;BME280;28042;43.986;22.860;2023-07-22T05:27:01;101069.78;;;22.54;100.00
42385;BME280;28042;43.986;22.860;2023-07-22T05:29:26;101078.16;;;22.59;100.00
42385;BME280;28042;43.986;22.860;2023-07-22T05:31:52;101088.72;;;22.62;100.00
42385;BME280;28042;43.986;22.860;2023-07-22T05:34:17;101068.44;;;22.62;100.00
42385;BME280;28042;43.986;22.860;2023-07-22T05:36:42;101057.31;;;22.62;100.00
42385;BME280;28042;43.986;22.860;2023-07-22T05:39:08;101046.75;;;22.64;100.00
42385;BME280;28042;43.986;22.860;2023-07-22T05:41:33;101004.66;;;22.50;100.00
42385;BME280;28042;43.986;22.860;2023-07-22T05:43:59;101055.00;;;22.48;100.00
42385;BME280;28042;43.986;22.860;2023-07-22T05:46:25;101034.88;;;21.99;100.00
42385;BME280;28042;43.986;22.860;2023-07-22T05:48:50;101057.25;;;21.55;100.00
42385;BME280;28042;43.986;22.860;2023-07-22T05:51:17;101074.75;;;21.29;100.00
42385;BME280;28042;43.986;22.860;2023-07-22T05:53:42;101054.91;;;20.98;100.00
42385;BME280;28042;43.986;22.860;2023-07-22T05:56:08;101057.28;;;20.89;100.00
42385;BME280;28042;43.986;22.860;2023-07-22T05:58:34;101069.31;;;20.95;100.00
42385;BME280;28042;43.986;22.860;2023-07-22T06:01:00;101080.44;;;21.00;100.00
42385;BME280;28042;43.986;22.860;2023-07-22T06:03:25;101066.31;;;21.24;100.00
42385;BME280;28042;43.986;22.860;2023-07-22T06:05:51;101025.84;;;22.14;100.00
42385;BME280;28042;43.986;22.860;2023-07-22T06:08:16;101028.72;;;23.39;100.00
42385;BME280;28042;43.986;22.860;2023-07-22T06:10:42;100999.81;;;23.86;100.00
42385;BME280;28042;43.986;22.860;2023-07-22T06:13:07;101000.38;;;24.93;100.00
42385;BME280;28042;43.986;22.860;2023-07-22T06:15:33;100968.03;;;25.81;100.00
42385;BME280;28042;43.986;22.860;2023-07-22T06:17:59;100987.34;;;27.07;100.00
42385;BME280;28042;43.986;22.860;2023-07-22T06:20:25;100949.63;;;27.18;100.00
42385;BME280;28042;43.986;22.860;2023-07-22T06:22:51;100950.25;;;27.15;94.62
42385;BME280;28042;43.986;22.860;2023-07-22T06:25:16;100927.03;;;26.91;93.28
42385;BME280;28042;43.986;22.860;2023-07-22T06:27:43;100890.41;;;27.44;94.04
42385;BME280;28042;43.986;22.860;2023-07-22T06:30:09;100901.66;;;27.90;87.52
42385;BME280;28042;43.986;22.860;2023-07-22T06:32:37;100924.88;;;28.64;83.40
42385;BME280;28042;43.986;22.860;2023-07-22T06:35:02;100889.44;;;28.55;83.11
42385;BME280;28042;43.986;22.860;2023-07-22T06:37:28;100891.78;;;29.47;79.94
42385;BME280;28042;43.986;22.860;2023-07-22T06:39:53;100889.56;;;30.20;77.62
42385;BME280;28042;43.986;22.860;2023-07-22T06:42:19;100888.25;;;30.18;72.13
42385;BME280;28042;43.986;22.860;2023-07-22T06:44:44;100843.63;;;29.63;74.47
42385;BME280;28042;43.986;22.860;2023-07-22T06:47:10;100855.88;;;29.98;72.92
42385;BME280;28042;43.986;22.860;2023-07-22T06:49:35;100855.75;;;29.27;73.13
42385;BME280;28042;43.986;22.860;2023-07-22T06:52:01;100880.28;;;29.13;77.08
42385;BME280;28042;43.986;22.860;2023-07-22T06:54:27;100880.53;;;29.03;76.27
42385;BME280;28042;43.986;22.860;2023-07-22T06:56:53;100888.66;;;28.90;76.63
42385;BME280;28042;43.986;22.860;2023-07-22T06:59:18;100871.09;;;28.71;79.25
42385;BME280;28042;43.986;22.860;2023-07-22T07:01:44;100866.75;;;28.65;76.85
42385;BME280;28042;43.986;22.860;2023-07-22T07:04:09;100885.63;;;28.87;76.75
42385;BME280;28042;43.986;22.860;2023-07-22T07:06:35;100891.16;;;28.92;75.28
42385;BME280;28042;43.986;22.860;2023-07-22T07:09:01;100855.31;;;28.61;75.38
42385;BME280;28042;43.986;22.860;2023-07-22T07:11:28;100901.97;;;28.98;75.85
42385;BME280;28042;43.986;22.860;2023-07-22T07:13:54;100885.09;;;28.98;72.05
42385;BME280;28042;43.986;22.860;2023-07-22T07:16:28;100912.63;;;29.10;72.33
42385;BME280;28042;43.986;22.860;2023-07-22T07:18:54;100922.56;;;28.80;70.26
42385;BME280;28042;43.986;22.860;2023-07-22T07:21:20;100909.72;;;28.52;69.35
42385;BME280;28042;43.986;22.860;2023-07-22T07:23:50;100915.34;;;28.52;68.63
42385;BME280;28042;43.986;22.860;2023-07-22T07:26:16;100890.47;;;28.31;69.18
42385;BME280;28042;43.986;22.860;2023-07-22T07:28:41;100908.78;;;28.29;69.45
42385;BME280;28042;43.986;22.860;2023-07-22T07:31:07;100930.09;;;28.43;69.85
42385;BME280;28042;43.986;22.860;2023-07-22T07:33:33;100933.09;;;28.47;67.81
42385;BME280;28042;43.986;22.860;2023-07-22T07:35:59;100897.75;;;28.46;65.72
42385;BME280;28042;43.986;22.860;2023-07-22T07:38:25;100899.31;;;28.52;66.29
42385;BME280;28042;43.986;22.860;2023-07-22T07:40:56;100930.91;;;28.71;69.43
42385;BME280;28042;43.986;22.860;2023-07-22T07:43:22;100899.75;;;28.46;73.38
42385;BME280;28042;43.986;22.860;2023-07-22T07:45:47;100940.91;;;28.64;70.42
42385;BME280;28042;43.986;22.860;2023-07-22T07:48:13;100945.47;;;28.46;74.94
42385;BME280;28042;43.986;22.860;2023-07-22T07:50:38;100930.63;;;28.46;76.41
42385;BME280;28042;43.986;22.860;2023-07-22T07:53:04;100926.34;;;28.62;73.41
42385;BME280;28042;43.986;22.860;2023-07-22T07:55:29;100922.63;;;28.53;72.98
42385;BME280;28042;43.986;22.860;2023-07-22T07:57:54;100926.13;;;28.72;74.88
42385;BME280;28042;43.986;22.860;2023-07-22T08:00:20;100920.53;;;28.58;74.16
42385;BME280;28042;43.986;22.860;2023-07-22T08:02:46;100901.81;;;28.54;71.65
42385;BME280;28042;43.986;22.860;2023-07-22T08:05:12;100901.59;;;28.64;71.52
42385;BME280;28042;43.986;22.860;2023-07-22T08:07:38;100888.47;;;28.73;72.37
42385;BME280;28042;43.986;22.860;2023-07-22T08:10:05;100882.84;;;28.73;70.54
42385;BME280;28042;43.986;22.860;2023-07-22T08:12:32;100876.50;;;28.81;70.63
42385;BME280;28042;43.986;22.860;2023-07-22T08:14:58;100897.38;;;29.03;70.82
42385;BME280;28042;43.986;22.860;2023-07-22T08:17:24;100891.94;;;29.06;69.41
42385;BME280;28042;43.986;22.860;2023-07-22T08:19:49;100923.19;;;29.05;69.22
42385;BME280;28042;43.986;22.860;2023-07-22T08:22:14;100922.78;;;28.97;74.37
42385;BME280;28042;43.986;22.860;2023-07-22T08:24:40;100897.81;;;28.96;77.29
42385;BME280;28042;43.986;22.860;2023-07-22T08:27:05;100922.97;;;28.87;75.52
42385;BME280;28042;43.986;22.860;2023-07-22T08:29:31;100892.88;;;28.52;79.07
42385;BME280;28042;43.986;22.860;2023-07-22T08:31:58;100920.53;;;28.44;78.58
42385;BME280;28042;43.986;22.860;2023-07-22T08:34:23;100895.28;;;28.44;79.15
42385;BME280;28042;43.986;22.860;2023-07-22T08:36:49;100912.22;;;28.67;77.68
42385;BME280;28042;43.986;22.860;2023-07-22T08:39:14;100904.53;;;28.59;79.55
42385;BME280;28042;43.986;22.860;2023-07-22T08:41:40;100892.56;;;28.67;77.16
42385;BME280;28042;43.986;22.860;2023-07-22T08:44:07;100894.31;;;28.63;80.29
42385;BME280;28042;43.986;22.860;2023-07-22T08:46:33;100935.06;;;28.74;77.03
42385;BME280;28042;43.986;22.860;2023-07-22T08:49:00;100931.53;;;28.55;77.76
42385;BME280;28042;43.986;22.860;2023-07-22T08:51:26;100922.38;;;28.49;77.97
42385;BME280;28042;43.986;22.860;2023-07-22T08:53:56;100934.34;;;28.55;77.70
42385;BME280;28042;43.986;22.860;2023-07-22T08:56:24;100906.41;;;28.50;77.64
42385;BME280;28042;43.986;22.860;2023-07-22T08:58:52;100916.69;;;28.68;76.96
42385;BME280;28042;43.986;22.860;2023-07-22T09:01:17;100941.41;;;28.93;77.22
42385;BME280;28042;43.986;22.860;2023-07-22T09:03:43;100912.94;;;28.59;76.72
42385;BME280;28042;43.986;22.860;2023-07-22T09:06:10;100942.94;;;28.99;76.74
42385;BME280;28042;43.986;22.860;2023-07-22T09:08:36;100961.00;;;29.21;74.46
42385;BME280;28042;43.986;22.860;2023-07-22T09:11:03;100958.72;;;29.23;70.63
42385;BME280;28042;43.986;22.860;2023-07-22T09:13:29;100928.78;;;29.05;71.76
42385;BME280;28042;43.986;22.860;2023-07-22T09:15:59;100965.00;;;29.42;72.90
42385;BME280;28042;43.986;22.860;2023-07-22T09:18:25;100934.00;;;28.84;73.80
42385;BME280;28042;43.986;22.860;2023-07-22T09:20:51;100945.81;;;29.22;75.59
42385;BME280;28042;43.986;22.860;2023-07-22T09:23:16;100941.06;;;29.09;74.35
42385;BME280;28042;43.986;22.860;2023-07-22T09:25:42;100911.97;;;28.77;75.80
42385;BME280;28042;43.986;22.860;2023-07-22T09:28:08;100905.06;;;28.83;75.22
42385;BME280;28042;43.986;22.860;2023-07-22T09:30:36;100930.19;;;28.93;76.00
42385;BME280;28042;43.986;22.860;2023-07-22T09:33:04;100935.47;;;28.81;75.57
42385;BME280;28042;43.986;22.860;2023-07-22T09:35:43;100947.13;;;29.02;76.00
42385;BME280;28042;43.986;22.860;2023-07-22T09:38:09;100945.25;;;28.97;75.12
42385;BME280;28042;43.986;22.860;2023-07-22T09:40:34;100926.91;;;29.14;73.58
42385;BME280;28042;43.986;22.860;2023-07-22T09:43:03;100936.97;;;29.15;75.96
42385;BME280;28042;43.986;22.860;2023-07-22T09:45:30;100948.72;;;29.17;74.86
42385;BME280;28042;43.986;22.860;2023-07-22T09:47:56;100930.22;;;29.16;74.62
42385;BME280;28042;43.986;22.860;2023-07-22T09:50:23;100938.69;;;29.38;75.02
42385;BME280;28042;43.986;22.860;2023-07-22T09:52:53;100923.03;;;29.46;74.43
42385;BME280;28042;43.986;22.860;2023-07-22T09:55:27;100924.09;;;29.36;74.08
42385;BME280;28042;43.986;22.860;2023-07-22T09:57:59;100928.94;;;29.44;74.49
42385;BME280;28042;43.986;22.860;2023-07-22T10:00:32;100891.69;;;29.16;73.85
42385;BME280;28042;43.986;22.860;2023-07-22T10:02:59;100915.81;;;29.53;73.17
42385;BME280;28042;43.986;22.860;2023-07-22T10:05:26;100915.66;;;29.36;72.70
42385;BME280;28042;43.986;22.860;2023-07-22T10:07:53;100928.13;;;29.21;72.75
42385;BME280;28042;43.986;22.860;2023-07-22T10:10:23;100898.00;;;28.99;73.69
42385;BME280;28042;43.986;22.860;2023-07-22T10:12:49;100893.56;;;29.21;73.88
42385;BME280;28042;43.986;22.860;2023-07-22T10:15:15;100898.16;;;29.17;73.33
42385;BME280;28042;43.986;22.860;2023-07-22T10:17:42;100902.00;;;29.21;74.42
42385;BME280;28042;43.986;22.860;2023-07-22T10:20:09;100927.63;;;29.42;74.41
42385;BME280;28042;43.986;22.860;2023-07-22T10:22:41;100926.56;;;29.51;75.03
42385;BME280;28042;43.986;22.860;2023-07-22T10:25:07;100927.81;;;29.45;74.76
42385;BME280;28042;43.986;22.860;2023-07-22T10:27:35;100918.63;;;29.76;74.13
42385;BME280;28042;43.986;22.860;2023-07-22T10:30:02;100917.75;;;29.98;73.97
42385;BME280;28042;43.986;22.860;2023-07-22T10:32:33;100915.38;;;30.14;73.24
42385;BME280;28042;43.986;22.860;2023-07-22T10:34:59;100913.31;;;30.05;74.62
42385;BME280;28042;43.986;22.860;2023-07-22T10:37:30;100904.88;;;30.05;73.71
42385;BME280;28042;43.986;22.860;2023-07-22T10:39:59;100911.56;;;30.09;72.93
42385;BME280;28042;43.986;22.860;2023-07-22T10:42:25;100902.41;;;30.44;69.15
42385;BME280;28042;43.986;22.860;2023-07-22T10:44:51;100900.19;;;30.32;68.23
42385;BME280;28042;43.986;22.860;2023-07-22T10:47:32;100882.25;;;30.10;70.03
42385;BME280;28042;43.986;22.860;2023-07-22T10:50:05;100911.75;;;30.22;70.81
42385;BME280;28042;43.986;22.860;2023-07-22T10:52:40;100898.38;;;30.27;69.86
42385;BME280;28042;43.986;22.860;2023-07-22T10:55:17;100903.00;;;30.72;65.78
42385;BME280;28042;43.986;22.860;2023-07-22T10:57:54;100911.34;;;30.94;65.60
42385;BME280;28042;43.986;22.860;2023-07-22T11:00:21;100898.19;;;30.72;65.50
42385;BME280;28042;43.986;22.860;2023-07-22T11:03:10;100903.19;;;31.01;65.02
42385;BME280;28042;43.986;22.860;2023-07-22T11:05:53;100900.06;;;30.94;65.24
42385;BME280;28042;43.986;22.860;2023-07-22T11:08:40;100911.34;;;31.11;63.74
42385;BME280;28042;43.986;22.860;2023-07-22T11:11:06;100911.16;;;30.99;63.34
42385;BME280;28042;43.986;22.860;2023-07-22T11:13:37;100876.69;;;30.93;65.31
42385;BME280;28042;43.986;22.860;2023-07-22T11:16:03;100897.41;;;31.06;64.31
42385;BME280;28042;43.986;22.860;2023-07-22T11:18:38;100876.03;;;31.05;64.14
42385;BME280;28042;43.986;22.860;2023-07-22T11:21:11;100906.38;;;31.43;62.40
42385;BME280;28042;43.986;22.860;2023-07-22T11:23:37;100874.72;;;31.29;61.82
42385;BME280;28042;43.986;22.860;2023-07-22T11:26:05;100877.03;;;31.27;63.76
42385;BME280;28042;43.986;22.860;2023-07-22T11:28:31;100908.56;;;31.37;63.59
42385;BME280;28042;43.986;22.860;2023-07-22T11:30:56;100878.03;;;31.22;62.83
42385;BME280;28042;43.986;22.860;2023-07-22T11:33:24;100913.00;;;31.64;63.14
42385;BME280;28042;43.986;22.860;2023-07-22T11:35:49;100890.94;;;31.40;62.41
42385;BME280;28042;43.986;22.860;2023-07-22T11:38:16;100901.53;;;31.52;62.83
42385;BME280;28042;43.986;22.860;2023-07-22T11:40:42;100888.00;;;31.28;61.69
42385;BME280;28042;43.986;22.860;2023-07-22T11:43:07;100906.53;;;31.55;61.96
42385;BME280;28042;43.986;22.860;2023-07-22T11:45:33;100886.78;;;31.55;62.61
42385;BME280;28042;43.986;22.860;2023-07-22T11:47:58;100876.50;;;31.50;60.73
42385;BME280;28042;43.986;22.860;2023-07-22T11:50:32;100905.81;;;31.84;61.14
42385;BME280;28042;43.986;22.860;2023-07-22T11:52:58;100903.97;;;31.88;59.38
42385;BME280;28042;43.986;22.860;2023-07-22T11:55:24;100908.16;;;31.82;60.51
42385;BME280;28042;43.986;22.860;2023-07-22T11:57:55;100898.53;;;31.66;61.38
42385;BME280;28042;43.986;22.860;2023-07-22T12:00:21;100904.69;;;31.07;61.61
42385;BME280;28042;43.986;22.860;2023-07-22T12:02:47;100894.75;;;31.44;61.16
42385;BME280;28042;43.986;22.860;2023-07-22T12:05:21;100871.56;;;31.21;60.91
42385;BME280;28042;43.986;22.860;2023-07-22T12:07:46;100896.09;;;31.47;60.18
42385;BME280;28042;43.986;22.860;2023-07-22T12:10:12;100880.16;;;31.34;61.78
42385;BME280;28042;43.986;22.860;2023-07-22T12:12:42;100868.53;;;31.44;60.59
42385;BME280;28042;43.986;22.860;2023-07-22T12:15:21;100885.13;;;31.54;59.25
42385;BME280;28042;43.986;22.860;2023-07-22T12:17:48;100900.19;;;31.67;58.64
42385;BME280;28042;43.986;22.860;2023-07-22T12:20:15;100865.19;;;31.59;58.95
42385;BME280;28042;43.986;22.860;2023-07-22T12:22:41;100889.63;;;31.46;58.87
42385;BME280;28042;43.986;22.860;2023-07-22T12:25:07;100891.41;;;31.68;58.31
42385;BME280;28042;43.986;22.860;2023-07-22T12:27:33;100891.59;;;31.63;58.18
42385;BME280;28042;43.986;22.860;2023-07-22T12:29:58;100886.78;;;31.55;57.83
42385;BME280;28042;43.986;22.860;2023-07-22T12:32:23;100887.75;;;31.76;58.06